Time;durP1;ratioP1;P1;durP2;ratioP2;P2;SDS_P1;SDS_P2;PMS_P1;PMS_P2;Temp;Humidity;BMP_temperature;BMP_pressure;BME280_temperature;BME280_humidity;BME280_pressure;Samples;Min_cycle;Max_cycle;Signal;HPM_P1;HPM_P2
2021/04/30 00:00:09;;;;;;;12.82;9.88;;;;;;;12.03;66.25;99097.72;3481094;28;20071;-44
2021/04/30 00:01:50;;;;;;;13.95;10.52;;;;;;;12.03;66.17;99092.50;3483959;28;20056;-45
2021/04/30 00:03:32;;;;;;;12.43;9.77;;;;;;;12.02;66.68;99091.66;3479701;28;20056;-44
2021/04/30 00:05:14;;;;;;;12.57;10.20;;;;;;;12.01;66.46;99087.31;3483779;28;20514;-45
2021/04/30 00:06:55;;;;;;;21.45;11.38;;;;;;;12.02;67.00;99090.78;3480930;28;20060;-49
2021/04/30 00:08:37;;;;;;;14.63;10.68;;;;;;;12.00;67.27;99091.66;3481929;28;20087;-49
2021/04/30 00:10:19;;;;;;;13.48;10.50;;;;;;;12.00;67.12;99083.00;3481577;28;20421;-48
2021/04/30 00:12:00;;;;;;;14.02;10.55;;;;;;;12.00;67.29;99088.19;3478685;28;20506;-48
2021/04/30 00:13:42;;;;;;;17.20;11.30;;;;;;;11.99;67.04;99084.75;3482500;28;20072;-49
2021/04/30 00:15:24;;;;;;;16.48;10.55;;;;;;;12.00;66.96;99088.19;3479090;28;20045;-49
2021/04/30 00:17:05;;;;;;;14.60;10.73;;;;;;;12.01;67.57;99087.31;3483230;28;20056;-52
2021/04/30 00:18:47;;;;;;;14.35;10.68;;;;;;;12.02;67.47;99093.41;3479359;28;20048;-48
2021/04/30 00:20:28;;;;;;;15.43;10.85;;;;;;;12.02;67.57;99083.84;3480503;28;20049;-46
2021/04/30 00:22:10;;;;;;;12.57;9.50;;;;;;;12.03;66.46;99089.91;3482115;28;20422;-44
2021/04/30 00:23:56;;;;;;;13.50;9.90;;;;;;;12.04;67.91;99087.31;3478973;28;20056;-46
2021/04/30 00:25:37;;;;;;;14.93;10.07;;;;;;;12.06;67.90;99082.97;3470123;28;20053;-45
2021/04/30 00:27:19;;;;;;;14.25;9.25;;;;;;;12.08;67.54;99082.97;3477503;28;20049;-45
2021/04/30 00:29:01;;;;;;;15.25;9.73;;;;;;;12.09;66.63;99082.13;3483276;28;20053;-44
2021/04/30 00:30:43;;;;;;;14.45;10.00;;;;;;;12.11;67.06;99080.38;3480888;28;20053;-45
2021/04/30 00:32:24;;;;;;;10.82;8.73;;;;;;;12.13;66.68;99082.09;3481478;28;20052;-49
2021/04/30 00:34:06;;;;;;;15.38;11.07;;;;;;;12.16;67.57;99079.50;3482629;28;20056;-44
2021/04/30 00:35:48;;;;;;;12.75;9.55;;;;;;;12.18;67.04;99084.69;3479173;28;20088;-45
2021/04/30 00:37:29;;;;;;;14.23;9.30;;;;;;;12.19;66.91;99084.69;3483182;28;20498;-45
2021/04/30 00:39:11;;;;;;;13.23;9.48;;;;;;;12.22;66.98;99080.34;3478853;28;20036;-45
2021/04/30 00:40:53;;;;;;;12.32;9.68;;;;;;;12.23;67.06;99077.75;3482871;28;20079;-48
2021/04/30 00:42:35;;;;;;;12.23;8.90;;;;;;;12.24;66.68;99078.59;3479628;28;20045;-48
2021/04/30 00:44:17;;;;;;;14.23;10.20;;;;;;;12.26;66.63;99085.53;3479409;28;20454;-48
2021/04/30 00:45:59;;;;;;;12.65;8.05;;;;;;;12.28;66.10;99075.13;3481834;28;20064;-44
2021/04/30 00:47:40;;;;;;;13.35;9.30;;;;;;;12.30;66.57;99082.06;3479228;28;20057;-48
2021/04/30 00:49:21;;;;;;;13.52;9.52;;;;;;;12.32;66.24;99071.66;3483284;28;20095;-44
2021/04/30 00:51:03;;;;;;;12.70;9.63;;;;;;;12.32;66.54;99069.91;3479011;28;20045;-44
2021/04/30 00:52:45;;;;;;;15.50;9.70;;;;;;;12.35;66.36;99074.25;3482952;28;20510;-48
2021/04/30 00:54:26;;;;;;;14.55;9.90;;;;;;;12.34;66.50;99080.31;3479132;28;20099;-48
2021/04/30 00:56:08;;;;;;;11.70;8.75;;;;;;;12.36;66.23;99073.38;3479711;28;20049;-49
2021/04/30 00:57:53;;;;;;;11.77;8.63;;;;;;;12.36;66.40;99073.38;3481868;28;20091;-45
2021/04/30 00:59:35;;;;;;;11.90;9.00;;;;;;;12.37;66.41;99075.09;3478287;28;20045;-45
2021/04/30 01:01:18;;;;;;;13.27;9.60;;;;;;;12.36;66.47;99074.25;3483144;28;20099;-45
2021/04/30 01:03:00;;;;;;;12.23;9.13;;;;;;;12.36;66.38;99065.56;3479894;28;20052;-50
2021/04/30 01:04:41;;;;;;;13.27;9.20;;;;;;;12.36;65.80;99068.16;3482300;28;20110;-48
2021/04/30 01:06:22;;;;;;;15.15;10.52;;;;;;;12.37;66.67;99064.69;3479605;28;20556;-49
2021/04/30 01:08:04;;;;;;;14.35;10.02;;;;;;;12.35;66.68;99064.69;3479577;28;20049;-48
2021/04/30 01:09:46;;;;;;;12.18;9.10;;;;;;;12.36;66.61;99060.34;3480826;28;20056;-50
2021/04/30 01:11:27;;;;;;;9.95;8.43;;;;;;;12.34;66.03;99065.56;3480042;28;20083;-50
2021/04/30 01:13:12;;;;;;;12.05;9.70;;;;;;;12.34;66.64;99062.97;3481953;28;20088;-48
2021/04/30 01:14:54;;;;;;;12.73;9.15;;;;;;;12.34;66.75;99067.31;3478698;28;20056;-44
2021/04/30 01:16:36;;;;;;;13.77;9.85;;;;;;;12.33;67.10;99055.16;3482560;28;20525;-44
2021/04/30 01:18:17;;;;;;;11.98;9.57;;;;;;;12.33;67.38;99050.84;3479339;28;20147;-45
2021/04/30 01:19:58;;;;;;;13.27;9.38;;;;;;;12.31;66.82;99050.00;3479812;28;20495;-45
2021/04/30 01:21:40;;;;;;;12.80;9.60;;;;;;;12.30;67.27;99044.78;3482789;28;20053;-44
2021/04/30 01:23:22;;;;;;;13.38;10.13;;;;;;;12.30;67.27;99052.59;3480508;28;20565;-46
2021/04/30 01:25:05;;;;;;;15.48;9.80;;;;;;;12.27;67.15;99055.19;3483665;28;20049;-49
2021/04/30 01:26:46;;;;;;;13.40;9.70;;;;;;;12.25;66.93;99047.38;3477163;28;20091;-49
2021/04/30 01:28:28;;;;;;;13.70;9.57;;;;;;;12.25;67.21;99050.00;3481021;28;20048;-45
2021/04/30 01:30:13;;;;;;;14.13;9.90;;;;;;;12.24;67.24;99052.59;3471942;28;20053;-45
2021/04/30 01:31:55;;;;;;;13.88;9.80;;;;;;;12.24;67.62;99052.59;3472180;28;20461;-45
2021/04/30 01:33:37;;;;;;;13.88;9.68;;;;;;;12.23;67.61;99049.13;3469322;28;20057;-49
2021/04/30 01:35:20;;;;;;;14.07;9.77;;;;;;;12.22;67.65;99051.75;3473145;28;20077;-48
2021/04/30 01:37:01;;;;;;;13.20;9.50;;;;;;;12.20;67.25;99047.41;3483041;28;20060;-49
2021/04/30 01:38:43;;;;;;;11.77;8.63;;;;;;;12.19;66.43;99043.09;3477910;28;20045;-48
2021/04/30 01:40:27;;;;;;;13.63;9.63;;;;;;;12.19;67.75;99040.47;3481599;28;20538;-44
2021/04/30 01:42:09;;;;;;;12.18;9.25;;;;;;;12.18;67.03;99048.28;3480552;28;20040;-48
2021/04/30 01:43:51;;;;;;;13.30;9.93;;;;;;;12.18;67.71;99041.34;3479448;28;20080;-48
2021/04/30 01:45:34;;;;;;;12.85;9.70;;;;;;;12.18;67.93;99035.28;3482782;28;20060;-45
2021/04/30 01:47:16;;;;;;;16.33;10.18;;;;;;;12.17;67.71;99038.75;3479601;28;20053;-45
2021/04/30 01:48:58;;;;;;;14.52;10.38;;;;;;;12.16;67.71;99029.22;3482795;28;20052;-48
2021/04/30 01:50:39;;;;;;;15.98;10.35;;;;;;;12.14;67.99;99031.84;3479066;28;20056;-49
2021/04/30 01:52:22;;;;;;;12.32;9.43;;;;;;;12.14;67.39;99023.19;3480804;28;20056;-45
2021/04/30 01:54:06;;;;;;;12.70;8.90;;;;;;;12.11;67.34;99023.19;3481526;28;20049;-45
2021/04/30 01:55:48;;;;;;;13.52;9.98;;;;;;;12.11;68.00;99026.63;3478326;28;20045;-49
2021/04/30 01:57:29;;;;;;;31.40;9.88;;;;;;;12.10;67.79;99026.63;3482188;28;20056;-48
2021/04/30 01:59:10;;;;;;;13.65;9.32;;;;;;;12.08;67.74;99021.47;3479112;28;20080;-49
2021/04/30 02:00:54;;;;;;;14.80;10.85;;;;;;;12.05;67.78;99018.88;3482926;28;20087;-48
2021/04/30 02:02:45;;;;;;;13.68;10.00;;;;;;;12.04;67.90;99030.13;3479464;28;20041;-44
2021/04/30 02:04:26;;;;;;;12.32;10.05;;;;;;;12.03;68.45;99023.22;3478601;28;20042;-44
2021/04/30 02:06:08;;;;;;;16.35;10.38;;;;;;;12.03;68.44;99024.91;3482474;28;20083;-46
2021/04/30 02:07:49;;;;;;;12.18;9.93;;;;;;;12.00;68.30;99020.59;3477844;28;20063;-44
2021/04/30 02:09:31;;;;;;;14.00;9.93;;;;;;;11.98;68.11;99018.00;3481228;28;20048;-44
2021/04/30 02:11:13;;;;;;;17.25;10.00;;;;;;;11.97;68.52;99018.88;3480196;28;20084;-44
2021/04/30 02:12:55;;;;;;;12.63;9.65;;;;;;;11.96;68.06;99008.50;3479048;28;20072;-44
2021/04/30 02:14:36;;;;;;;14.43;10.73;;;;;;;11.94;68.46;99013.69;3468200;28;20057;-45
2021/04/30 02:16:18;;;;;;;14.95;9.88;;;;;;;11.93;68.67;99017.16;3473886;28;20533;-44
2021/04/30 02:17:59;;;;;;;14.23;11.02;;;;;;;11.92;68.79;99009.34;3482208;28;20053;-44
2021/04/30 02:19:40;;;;;;;15.60;9.75;;;;;;;11.89;68.50;99009.34;3477547;28;20892;-45
2021/04/30 02:21:22;;;;;;;20.40;10.75;;;;;;;11.86;68.71;99010.25;3480068;28;20088;-45
2021/04/30 02:23:03;;;;;;;13.85;10.45;;;;;;;11.85;68.93;99011.09;3479020;28;20139;-45
2021/04/30 02:24:45;;;;;;;14.43;9.35;;;;;;;11.82;68.19;99004.19;3479141;28;20407;-44
2021/04/30 02:26:29;;;;;;;11.13;8.60;;;;;;;11.80;68.18;99007.66;3482082;28;20095;-45
2021/04/30 02:28:10;;;;;;;17.73;10.77;;;;;;;11.78;68.75;98996.38;3477637;28;20503;-44
2021/04/30 02:29:52;;;;;;;14.23;10.15;;;;;;;11.76;69.27;99011.97;3482283;28;20057;-45
2021/04/30 02:31:33;;;;;;;13.52;10.35;;;;;;;11.75;69.66;99010.25;3478625;28;20530;-44
2021/04/30 02:33:14;;;;;;;17.30;10.35;;;;;;;11.74;69.44;99016.31;3481224;28;20076;-44
2021/04/30 02:34:56;;;;;;;12.48;9.52;;;;;;;11.71;69.62;99011.16;3480069;28;20057;-44
2021/04/30 02:36:37;;;;;;;15.13;10.10;;;;;;;11.71;69.68;99018.06;3479107;28;20140;-44
2021/04/30 02:38:19;;;;;;;11.82;9.45;;;;;;;11.70;69.80;99014.59;3481855;28;20059;-44
2021/04/30 02:40:03;;;;;;;12.35;8.80;;;;;;;11.70;69.48;99013.75;3477497;28;20056;-45
2021/04/30 02:41:45;;;;;;;13.68;9.40;;;;;;;11.71;68.86;99013.75;3482724;28;20107;-45
2021/04/30 02:43:26;;;;;;;11.70;8.43;;;;;;;11.72;69.35;99014.59;3473364;28;20132;-45
2021/04/30 02:45:09;;;;;;;18.15;10.25;;;;;;;11.73;69.89;99024.09;3469317;28;20080;-50
2021/04/30 02:46:51;;;;;;;14.82;9.82;;;;;;;11.73;69.68;99022.41;3480197;28;20430;-45
2021/04/30 02:48:34;;;;;;;14.88;10.55;;;;;;;11.75;69.33;99019.81;3480250;28;20044;-48
2021/04/30 02:50:18;;;;;;;13.15;8.82;;;;;;;11.75;68.93;99012.88;3480992;28;20529;-48
2021/04/30 02:51:59;;;;;;;;;;;;;;;11.76;68.88;99017.19;3479043;28;20433;-49
2021/04/30 02:53:42;;;;;;;14.15;9.55;;;;;;;11.78;69.16;99018.06;3482139;28;19924;-49
2021/04/30 02:55:25;;;;;;;14.80;9.23;;;;;;;11.79;68.94;99019.78;3477166;28;20563;-49
2021/04/30 02:57:06;;;;;;;13.55;9.77;;;;;;;11.80;69.36;99023.25;3480078;28;20053;-48
2021/04/30 02:58:53;;;;;;;14.18;9.32;;;;;;;11.79;69.14;99018.91;3480690;28;20127;-48
2021/04/30 03:00:34;;;;;;;12.80;9.60;;;;;;;11.80;69.42;99031.06;3478626;28;20052;-50
2021/04/30 03:02:16;;;;;;;13.13;9.45;;;;;;;11.78;69.40;99020.66;3482009;28;20044;-49
2021/04/30 03:03:58;;;;;;;14.52;9.95;;;;;;;11.78;69.46;99023.25;3477129;28;20497;-49
2021/04/30 03:05:39;;;;;;;11.82;8.73;;;;;;;11.79;68.83;99013.72;3482143;28;20102;-48
2021/04/30 03:07:21;;;;;;;13.98;9.32;;;;;;;11.81;68.78;99012.84;3477516;28;20094;-50
2021/04/30 03:09:03;;;;;;;12.18;9.43;;;;;;;11.82;68.90;99017.19;3480097;28;20045;-48
2021/04/30 03:10:45;;;;;;;13.75;9.65;;;;;;;11.84;68.96;99013.72;3479595;28;20079;-49
2021/04/30 03:12:26;;;;;;;12.02;8.70;;;;;;;11.83;68.79;99018.03;3478240;28;20051;-49
2021/04/30 03:14:07;;;;;;;14.68;9.50;;;;;;;11.84;69.05;99019.78;3476141;28;20517;-51
2021/04/30 03:15:48;;;;;;;10.45;8.38;;;;;;;11.84;68.30;99014.59;3477393;28;20045;-46
2021/04/30 03:17:30;;;;;;;13.48;8.52;;;;;;;11.85;68.73;99016.28;3483262;28;20422;-45
2021/04/30 03:19:12;;;;;;;13.25;9.00;;;;;;;11.86;68.55;99014.59;3479532;28;20505;-44
2021/04/30 03:20:55;;;;;;;11.25;8.55;;;;;;;11.88;69.04;99018.91;3480953;28;20053;-44
2021/04/30 03:22:37;;;;;;;14.80;9.65;;;;;;;11.88;68.76;99029.28;3481589;28;20069;-46
2021/04/30 03:24:18;;;;;;;15.63;8.35;;;;;;;11.89;68.29;99030.16;3479557;28;20050;-45
2021/04/30 03:26:01;;;;;;;11.70;8.18;;;;;;;11.89;67.97;99025.84;3483968;28;20100;-45
2021/04/30 03:27:42;;;;;;;11.60;8.40;;;;;;;11.90;67.77;99022.34;3479804;28;20145;-51
2021/04/30 03:29:24;;;;;;;12.00;9.00;;;;;;;11.92;68.32;99028.41;3484198;28;20492;-45
2021/04/30 03:31:05;;;;;;;13.93;8.85;;;;;;;11.92;68.55;99023.22;3479999;28;20080;-44
2021/04/30 03:32:46;;;;;;;12.68;8.95;;;;;;;11.94;68.03;99018.00;3482125;28;20571;-46
2021/04/30 03:34:29;;;;;;;14.65;9.00;;;;;;;11.94;68.13;99025.81;3482629;28;20049;-46
2021/04/30 03:36:10;;;;;;;11.00;8.77;;;;;;;11.94;68.13;99021.50;3479198;28;20042;-45
2021/04/30 03:37:53;;;;;;;9.93;7.47;;;;;;;11.97;68.03;99020.59;3484085;28;20049;-45
2021/04/30 03:39:34;;;;;;;12.00;8.48;;;;;;;11.99;67.96;99017.16;3479280;28;20056;-45
2021/04/30 03:41:16;;;;;;;12.43;7.78;;;;;;;12.03;67.35;99012.81;3484161;28;20049;-44
2021/04/30 03:42:58;;;;;;;11.43;7.90;;;;;;;12.09;67.42;99022.31;3479877;28;20075;-45
2021/04/30 03:44:39;;;;;;;14.43;7.43;;;;;;;12.15;66.82;99019.69;3480591;28;20049;-45
2021/04/30 03:46:21;;;;;;;11.85;7.78;;;;;;;12.22;66.36;99025.72;3482435;28;20052;-45
2021/04/30 03:48:03;;;;;;;11.90;7.40;;;;;;;12.27;66.44;99024.84;3479324;28;20426;-45
2021/04/30 03:49:44;;;;;;;8.55;6.15;;;;;;;12.31;65.88;99029.19;3484087;28;20514;-45
2021/04/30 03:51:26;;;;;;;10.18;7.25;;;;;;;12.33;66.38;99029.16;3481483;28;20044;-45
2021/04/30 03:53:07;;;;;;;9.70;6.88;;;;;;;12.36;65.93;99024.84;3483802;28;20108;-45
2021/04/30 03:54:49;;;;;;;14.48;7.95;;;;;;;12.36;65.70;99023.94;3480778;28;20045;-44
2021/04/30 03:56:31;;;;;;;9.52;7.10;;;;;;;12.37;65.39;99016.13;3481970;28;20530;-47
2021/04/30 03:58:12;;;;;;;9.52;7.00;;;;;;;12.39;65.81;99013.53;3482264;28;20056;-45
2021/04/30 03:59:53;;;;;;;11.85;6.88;;;;;;;12.38;65.46;99025.69;3480786;28;20049;-45
2021/04/30 04:01:35;;;;;;;10.27;7.60;;;;;;;12.39;65.71;99016.13;3469971;28;20075;-45
2021/04/30 04:03:16;;;;;;;8.07;6.68;;;;;;;12.38;65.16;99004.00;3477325;28;20135;-49
2021/04/30 04:04:57;;;;;;;10.55;7.40;;;;;;;12.41;65.50;99011.78;3484235;28;20079;-49
2021/04/30 04:06:39;;;;;;;9.43;7.38;;;;;;;12.41;65.66;99009.19;3479390;28;20056;-50
2021/04/30 04:08:20;;;;;;;9.25;6.63;;;;;;;12.40;65.15;99007.47;3480429;28;20053;-50
2021/04/30 04:10:02;;;;;;;9.68;7.70;;;;;;;12.39;64.82;98998.78;3481108;28;20061;-50
2021/04/30 04:11:45;;;;;;;12.02;7.55;;;;;;;12.39;64.95;99009.19;3480548;28;20136;-45
2021/04/30 04:13:27;;;;;;;11.93;6.90;;;;;;;12.40;65.05;99002.28;3472560;28;20053;-45
2021/04/30 04:15:10;;;;;;;10.20;7.18;;;;;;;12.41;64.65;99011.78;3478710;28;20041;-44
2021/04/30 04:16:51;;;;;;;9.20;6.78;;;;;;;12.43;64.84;99003.97;3483529;28;20522;-44
2021/04/30 04:18:32;;;;;;;10.52;6.07;;;;;;;12.46;64.44;99006.56;3479119;28;20528;-45
2021/04/30 04:20:14;;;;;;;9.88;6.50;;;;;;;12.49;64.47;99006.56;3481376;28;20084;-46
2021/04/30 04:21:56;;;;;;;11.13;7.53;;;;;;;12.56;64.79;99008.25;3481734;28;20051;-45
2021/04/30 04:23:37;;;;;;;9.93;7.15;;;;;;;12.64;64.41;99000.41;3479086;28;20080;-44
2021/04/30 04:25:18;;;;;;;12.20;6.65;;;;;;;12.71;64.48;99007.31;3469878;28;20052;-44
2021/04/30 04:27:00;;;;;;;10.73;6.78;;;;;;;12.76;63.98;99005.53;3475130;28;20053;-50
2021/04/30 04:28:42;;;;;;;12.23;7.55;;;;;;;12.76;64.07;99002.94;3483246;28;20049;-50
2021/04/30 04:30:24;;;;;;;10.75;7.45;;;;;;;12.80;63.95;98998.59;3480568;28;20049;-46
2021/04/30 04:32:06;;;;;;;11.05;7.25;;;;;;;12.81;64.26;99001.19;3480292;28;20049;-49
2021/04/30 04:33:49;;;;;;;11.00;7.30;;;;;;;12.83;63.48;98993.38;3482265;28;20048;-50
2021/04/30 04:35:30;;;;;;;12.77;6.93;;;;;;;12.87;63.94;98989.84;3478813;28;20053;-49
2021/04/30 04:37:12;;;;;;;11.70;6.70;;;;;;;12.94;63.29;98991.56;3469662;28;20049;-48
2021/04/30 04:38:53;;;;;;;10.30;6.95;;;;;;;13.02;62.80;98999.31;3476584;28;20497;-49
2021/04/30 04:40:34;;;;;;;9.02;6.38;;;;;;;13.06;62.52;98990.63;3483121;28;20106;-48
2021/04/30 04:42:16;;;;;;;10.02;6.75;;;;;;;13.10;62.84;98995.78;3478192;28;20053;-49
2021/04/30 04:43:58;;;;;;;8.70;6.63;;;;;;;13.17;62.19;98993.16;3480316;28;20049;-45
2021/04/30 04:45:39;;;;;;;8.80;6.38;;;;;;;13.25;62.34;98987.00;3480684;28;20083;-44
2021/04/30 04:47:21;;;;;;;9.50;6.40;;;;;;;13.33;61.93;98987.81;3478456;28;20555;-45
2021/04/30 04:49:06;;;;;;;8.55;6.15;;;;;;;13.46;62.01;98985.97;3483448;28;20475;-44
2021/04/30 04:50:47;;;;;;;10.43;6.90;;;;;;;13.58;61.25;98989.31;3478398;28;20426;-45
2021/04/30 04:52:38;;;;;;;10.75;6.93;;;;;;;13.64;61.06;98994.47;3483142;28;20049;-49
2021/04/30 04:54:20;;;;;;;11.95;6.45;;;;;;;13.70;60.75;98983.97;3480728;28;20064;-48
2021/04/30 04:56:02;;;;;;;11.13;6.40;;;;;;;13.71;60.91;98983.97;3478672;28;20045;-49
2021/04/30 04:57:45;;;;;;;9.20;6.00;;;;;;;13.72;60.41;98997.84;3482574;28;20510;-49
2021/04/30 04:59:26;;;;;;;7.07;6.13;;;;;;;13.70;61.31;98989.19;3479611;28;20510;-44
2021/04/30 05:01:07;;;;;;;8.30;6.15;;;;;;;13.74;60.79;98992.63;3483211;28;20049;-44
2021/04/30 05:02:49;;;;;;;9.30;6.45;;;;;;;13.79;60.90;98996.06;3478497;28;20053;-44
2021/04/30 05:04:30;;;;;;;11.93;6.38;;;;;;;13.82;61.05;98986.47;3482735;28;20495;-44
2021/04/30 05:06:12;;;;;;;12.27;6.85;;;;;;;13.82;60.80;98994.28;3480810;28;20086;-44
2021/04/30 05:07:53;;;;;;;9.55;6.72;;;;;;;13.78;61.11;98987.38;3481113;28;20045;-45
2021/04/30 05:09:35;;;;;;;9.80;6.40;;;;;;;13.76;61.12;98983.94;3481630;28;20452;-44
2021/04/30 05:11:16;;;;;;;8.77;6.35;;;;;;;13.76;61.22;98994.38;3479513;28;20497;-45
2021/04/30 05:12:59;;;;;;;9.40;6.28;;;;;;;13.72;61.57;98984.81;3483036;28;20076;-44
2021/04/30 05:14:40;;;;;;;8.80;6.25;;;;;;;13.73;61.30;98986.56;3473009;28;20088;-45
2021/04/30 05:16:22;;;;;;;8.90;6.68;;;;;;;13.73;61.45;98983.97;3470246;28;20053;-45
2021/04/30 05:18:04;;;;;;;11.73;6.32;;;;;;;13.78;61.43;98986.53;3480124;28;20060;-44
2021/04/30 05:19:45;;;;;;;12.13;6.47;;;;;;;13.81;61.45;98989.09;3480709;28;20241;-45
2021/04/30 05:21:32;;;;;;;10.32;6.45;;;;;;;13.80;61.44;98990.84;3481371;28;20468;-45
2021/04/30 05:23:14;;;;;;;11.07;6.30;;;;;;;13.82;61.94;98993.44;3478028;28;20093;-44
2021/04/30 05:24:56;;;;;;;7.88;5.90;;;;;;;13.82;61.60;98990.81;3482851;28;20057;-44
2021/04/30 05:26:37;;;;;;;13.20;7.00;;;;;;;13.78;61.86;98995.22;3478385;28;20084;-44
2021/04/30 05:28:19;;;;;;;10.98;6.50;;;;;;;13.75;62.24;98991.78;3480203;28;20056;-45
2021/04/30 05:30:01;;;;;;;11.10;7.43;;;;;;;13.78;62.42;98987.38;3480924;28;20560;-44
2021/04/30 05:31:42;;;;;;;6.72;5.60;;;;;;;13.82;61.85;98988.22;3479922;28;20083;-45
2021/04/30 05:33:24;;;;;;;12.23;6.68;;;;;;;13.80;61.95;98989.97;3482429;28;20583;-44
2021/04/30 05:35:06;;;;;;;9.65;6.55;;;;;;;13.75;62.40;98987.41;3479273;28;20046;-44
2021/04/30 05:36:48;;;;;;;8.93;6.85;;;;;;;13.74;62.56;98979.59;3482623;28;20064;-45
2021/04/30 05:38:29;;;;;;;18.77;6.97;;;;;;;13.74;62.72;98983.09;3479047;28;20052;-45
2021/04/30 05:40:12;;;;;;;11.73;6.45;;;;;;;13.76;62.69;98977.84;3480727;28;20048;-48
2021/04/30 05:41:54;;;;;;;9.43;7.05;;;;;;;13.79;62.30;98985.63;3480696;28;20049;-44
2021/04/30 05:43:36;;;;;;;10.75;7.15;;;;;;;13.81;62.73;98979.53;3478665;28;20051;-46
2021/04/30 05:45:17;;;;;;;15.82;7.03;;;;;;;13.83;62.64;98982.09;3481644;28;20041;-49
2021/04/30 05:46:59;;;;;;;11.00;6.63;;;;;;;13.82;62.57;98980.41;3479186;28;20083;-48
2021/04/30 05:48:40;;;;;;;10.93;7.00;;;;;;;13.84;62.88;98989.91;3482992;28;20060;-50
2021/04/30 05:50:21;;;;;;;10.32;7.10;;;;;;;13.84;62.98;98984.69;3479518;28;20049;-44
2021/04/30 05:52:03;;;;;;;12.55;7.45;;;;;;;13.86;62.59;98985.53;3481220;28;20506;-44
2021/04/30 05:53:45;;;;;;;11.88;7.45;;;;;;;13.94;62.79;98974.19;3479617;28;20059;-44
2021/04/30 05:55:43;;;;;;;9.55;7.50;;;;;;;14.02;62.47;98978.44;3479312;28;20049;-49
2021/04/30 05:57:25;;;;;;;10.77;6.57;;;;;;;14.16;62.71;98972.19;3482530;28;20146;-50
2021/04/30 05:59:07;;;;;;;12.70;7.40;;;;;;;14.35;61.99;98972.84;3477785;28;20504;-52
2021/04/30 06:00:48;;;;;;;13.40;8.15;;;;;;;14.44;61.51;98975.34;3481907;28;20511;-49
2021/04/30 06:02:30;;;;;;;8.40;6.30;;;;;;;14.53;60.87;98961.31;3478481;28;20049;-49
2021/04/30 06:04:11;;;;;;;8.23;6.63;;;;;;;14.66;60.69;98957.66;3480369;28;20053;-51
2021/04/30 06:05:52;;;;;;;16.55;7.07;;;;;;;14.74;60.52;98970.59;3481271;28;20064;-50
2021/04/30 06:07:34;;;;;;;13.43;6.90;;;;;;;14.75;60.41;98967.09;3478872;28;20048;-50
2021/04/30 06:09:15;;;;;;;9.63;6.00;;;;;;;14.79;60.34;98971.38;3482448;28;20083;-49
2021/04/30 06:10:57;;;;;;;9.63;6.82;;;;;;;14.87;60.98;98973.88;3477486;28;20048;-48
2021/04/30 06:12:38;;;;;;;10.20;7.88;;;;;;;15.00;60.03;98971.03;3482116;28;20049;-48
2021/04/30 06:14:22;;;;;;;11.63;5.45;;;;;;;15.16;59.33;98973.44;3478156;28;20048;-44
2021/04/30 06:16:04;;;;;;;10.27;6.93;;;;;;;15.25;59.68;98975.03;3479779;28;20080;-44
2021/04/30 06:17:45;;;;;;;11.75;6.28;;;;;;;15.31;59.63;98961.84;3480904;28;20072;-45
2021/04/30 06:19:27;;;;;;;11.93;7.47;;;;;;;15.24;59.74;98968.91;3476483;28;20072;-44
2021/04/30 06:21:09;;;;;;;13.15;8.57;;;;;;;15.14;60.08;98965.59;3482220;28;20049;-45
2021/04/30 06:22:51;;;;;;;14.27;7.20;;;;;;;15.14;59.94;98964.75;3477983;28;20091;-45
2021/04/30 06:24:32;;;;;;;18.08;7.50;;;;;;;15.08;60.52;98970.06;3481366;28;20053;-44
2021/04/30 06:26:14;;;;;;;11.55;6.93;;;;;;;15.06;60.40;98962.25;3478743;28;20123;-44
2021/04/30 06:27:55;;;;;;;11.82;7.15;;;;;;;15.06;60.14;98969.22;3480154;28;20049;-45
2021/04/30 06:29:37;;;;;;;11.20;8.00;;;;;;;15.01;60.68;98971.91;3469796;28;20060;-45
2021/04/30 06:31:19;;;;;;;10.00;7.32;;;;;;;15.00;60.53;98978.88;3471223;28;20529;-44
2021/04/30 06:33:00;;;;;;;10.93;7.40;;;;;;;15.04;60.59;98987.53;3482113;28;20049;-47
2021/04/30 06:34:42;;;;;;;14.13;7.55;;;;;;;15.15;60.79;98974.31;3478805;28;20185;-43
2021/04/30 06:36:23;;;;;;;14.23;7.75;;;;;;;15.31;60.08;98969.69;3481917;28;20494;-44
2021/04/30 06:38:04;;;;;;;12.60;7.88;;;;;;;15.48;60.03;98969.41;3479600;28;20052;-50
2021/04/30 06:39:46;;;;;;;12.35;7.57;;;;;;;15.59;59.42;98955.28;3479921;28;20140;-49
2021/04/30 06:41:28;;;;;;;14.35;7.32;;;;;;;15.75;58.90;98965.44;3480388;28;20052;-49
2021/04/30 06:43:10;;;;;;;14.30;6.47;;;;;;;15.87;59.31;98964.38;3478750;28;20114;-54
2021/04/30 06:44:53;;;;;;;12.45;7.72;;;;;;;15.83;58.91;98968.78;3482304;28;20053;-51
2021/04/30 06:46:34;;;;;;;11.43;7.47;;;;;;;15.77;59.05;98969.78;3477376;28;20092;-50
2021/04/30 06:48:16;;;;;;;15.90;8.15;;;;;;;15.78;58.89;98965.41;3482367;28;20530;-49
2021/04/30 06:49:58;;;;;;;21.98;7.65;;;;;;;15.73;59.40;98960.25;3479049;28;20438;-50
2021/04/30 06:51:39;;;;;;;9.90;6.88;;;;;;;15.78;59.15;98971.47;3480847;28;20053;-44
2021/04/30 06:53:21;;;;;;;9.57;6.05;;;;;;;15.85;58.67;98974.84;3483297;28;20046;-46
2021/04/30 06:55:02;;;;;;;12.25;7.38;;;;;;;15.84;58.92;98975.75;3479581;28;20049;-47
2021/04/30 06:56:55;;;;;;;9.52;7.32;;;;;;;15.84;58.09;98967.91;3484389;28;20048;-46
2021/04/30 06:58:37;;;;;;;12.27;6.97;;;;;;;15.92;58.19;98968.59;3480899;28;20049;-46
2021/04/30 07:00:20;;;;;;;9.23;6.47;;;;;;;16.09;57.91;98970.06;3483204;28;20099;-46
2021/04/30 07:02:02;;;;;;;13.23;7.40;;;;;;;16.23;57.59;98968.00;3481770;28;20064;-44
2021/04/30 07:03:46;;;;;;;11.18;7.68;;;;;;;16.24;57.07;98971.47;3480987;28;20572;-46
2021/04/30 07:05:27;;;;;;;10.40;7.32;;;;;;;16.24;57.37;98976.72;3484306;28;20087;-46
2021/04/30 07:07:14;;;;;;;13.82;7.70;;;;;;;16.36;57.41;98976.47;3481226;28;20048;-46
2021/04/30 07:08:56;;;;;;;11.52;7.40;;;;;;;16.39;57.29;98963.31;3484452;28;20053;-46
2021/04/30 07:10:38;;;;;;;11.55;7.78;;;;;;;16.52;57.94;98962.13;3479962;28;20468;-46
2021/04/30 07:12:19;;;;;;;10.68;6.93;;;;;;;16.60;57.33;98959.38;3482227;28;20048;-46
2021/04/30 07:14:02;;;;;;;12.38;7.68;;;;;;;16.63;57.16;98963.66;3477496;28;20077;-46
2021/04/30 07:15:44;;;;;;;10.05;7.38;;;;;;;16.57;56.50;98969.06;3480909;28;20430;-46
2021/04/30 07:17:26;;;;;;;17.52;7.70;;;;;;;16.55;56.75;98977.78;3484044;28;20547;-46
2021/04/30 07:19:08;;;;;;;12.48;7.45;;;;;;;16.58;57.00;98963.75;3479347;28;20048;-47
2021/04/30 07:20:49;;;;;;;17.35;8.77;;;;;;;16.51;57.35;98963.06;3482935;28;20314;-46
2021/04/30 07:22:30;;;;;;;16.95;8.13;;;;;;;16.39;57.52;98978.13;3481119;28;20465;-46
2021/04/30 07:24:12;;;;;;;11.77;8.02;;;;;;;16.23;57.83;98968.00;3480807;28;20395;-48
2021/04/30 07:25:53;;;;;;;13.52;8.25;;;;;;;16.09;58.54;98959.59;3483104;28;20057;-47
2021/04/30 07:27:35;;;;;;;12.10;8.32;;;;;;;16.16;58.54;98959.41;3479379;28;20049;-46
2021/04/30 07:29:16;;;;;;;11.63;7.15;;;;;;;16.32;58.05;98965.19;3483883;28;20486;-45
2021/04/30 07:30:59;;;;;;;15.07;8.57;;;;;;;16.39;57.74;98962.44;3480577;28;20506;-46
2021/04/30 07:32:40;;;;;;;12.02;8.18;;;;;;;16.53;57.74;98961.25;3482773;28;20134;-46
2021/04/30 07:34:22;;;;;;;9.88;7.38;;;;;;;16.69;57.26;98956.53;3480989;28;20048;-46
2021/04/30 07:36:04;;;;;;;12.25;7.60;;;;;;;16.83;56.20;98963.22;3480637;28;20053;-47
2021/04/30 07:37:46;;;;;;;12.32;8.00;;;;;;;16.81;56.84;98954.56;3470271;28;20050;-47
2021/04/30 07:39:27;;;;;;;13.27;8.35;;;;;;;16.99;57.52;98950.63;3474642;28;20046;-47
2021/04/30 07:41:09;;;;;;;16.00;8.55;;;;;;;17.10;56.16;98961.72;3484101;28;20481;-50
2021/04/30 07:42:51;;;;;;;14.60;8.13;;;;;;;17.22;55.74;98943.09;3480806;28;20077;-48
2021/04/30 07:44:32;;;;;;;12.25;7.85;;;;;;;17.29;55.35;98946.41;3482607;28;20529;-50
2021/04/30 07:46:14;;;;;;;9.43;7.32;;;;;;;17.39;56.03;98949.66;3481943;28;20143;-50
2021/04/30 07:47:56;;;;;;;10.93;7.93;;;;;;;17.46;55.95;98943.34;3480724;28;20418;-49
2021/04/30 07:49:38;;;;;;;10.98;7.78;;;;;;;17.38;54.73;98947.94;3482790;28;20549;-49
2021/04/30 07:51:20;;;;;;;13.18;8.25;;;;;;;17.26;55.76;98934.22;3480186;28;20051;-50
2021/04/30 07:53:01;;;;;;;13.00;7.60;;;;;;;17.29;56.65;98936.78;3483845;28;20114;-49
2021/04/30 07:54:43;;;;;;;14.00;8.05;;;;;;;17.38;55.55;98934.84;3480534;28;20083;-47